Terminal Aerodrome Forecast
Issued by NWS

Home | Current Version | Previous Version | Text Only | Print | Product List | Glossary Off
Versions: 1 2 3 4 5 6 7 8 9 10 11 12 13 14 15 16 17 18 19 20 21 22

000
FTUS43 KABR 262058 AAA
TAFMBG
TAF AMD
KMBG 262058Z 2621/2718 13011KT P6SM BKN150
     FM270600 06008KT P6SM VCTS SCT060CB BKN150=

USA.gov is the U.S. government's official web portal to all federal, state and local government web resources and services.